sensor_id;sensor_type;location;lat;lon;timestamp;P1;durP1;ratioP1;P2;durP2;ratioP2
22425;SDS011;11380;50.822;15.790;2022-07-17T00:04:43;48.77;;;44.97;;
22425;SDS011;11380;50.822;15.790;2022-07-17T00:09:48;48.67;;;45.00;;
22425;SDS011;11380;50.822;15.790;2022-07-17T00:14:54;48.30;;;44.60;;
22425;SDS011;11380;50.822;15.790;2022-07-17T00:19:59;48.50;;;44.80;;
22425;SDS011;11380;50.822;15.790;2022-07-17T00:25:05;48.70;;;45.00;;
22425;SDS011;11380;50.822;15.790;2022-07-17T00:30:13;48.35;;;44.60;;
22425;SDS011;11380;50.822;15.790;2022-07-17T00:35:19;48.00;;;44.23;;
22425;SDS011;11380;50.822;15.790;2022-07-17T00:40:25;48.30;;;44.63;;
22425;SDS011;11380;50.822;15.790;2022-07-17T00:50:39;47.53;;;44.03;;
22425;SDS011;11380;50.822;15.790;2022-07-17T00:55:46;47.73;;;44.07;;
22425;SDS011;11380;50.822;15.790;2022-07-17T01:00:54;46.43;;;43.07;;
22425;SDS011;11380;50.822;15.790;2022-07-17T01:06:01;47.23;;;43.73;;
22425;SDS011;11380;50.822;15.790;2022-07-17T01:11:08;46.48;;;43.10;;
22425;SDS011;11380;50.822;15.790;2022-07-17T01:16:14;46.97;;;43.50;;
22425;SDS011;11380;50.822;15.790;2022-07-17T01:21:19;47.45;;;43.78;;
22425;SDS011;11380;50.822;15.790;2022-07-17T01:26:25;47.00;;;43.57;;
22425;SDS011;11380;50.822;15.790;2022-07-17T01:31:30;48.30;;;44.30;;
22425;SDS011;11380;50.822;15.790;2022-07-17T01:41:41;46.37;;;42.97;;
22425;SDS011;11380;50.822;15.790;2022-07-17T01:46:46;47.17;;;43.57;;
22425;SDS011;11380;50.822;15.790;2022-07-17T01:51:52;46.83;;;43.43;;
22425;SDS011;11380;50.822;15.790;2022-07-17T01:56:58;47.00;;;43.60;;
22425;SDS011;11380;50.822;15.790;2022-07-17T02:02:03;46.47;;;43.00;;
22425;SDS011;11380;50.822;15.790;2022-07-17T02:07:10;46.80;;;43.37;;
22425;SDS011;11380;50.822;15.790;2022-07-17T02:12:16;46.57;;;42.97;;
22425;SDS011;11380;50.822;15.790;2022-07-17T02:17:21;46.18;;;42.88;;
22425;SDS011;11380;50.822;15.790;2022-07-17T02:22:26;46.73;;;43.33;;
22425;SDS011;11380;50.822;15.790;2022-07-17T02:27:32;47.47;;;43.97;;
22425;SDS011;11380;50.822;15.790;2022-07-17T02:32:38;46.83;;;43.37;;
22425;SDS011;11380;50.822;15.790;2022-07-17T02:37:45;46.68;;;43.25;;
22425;SDS011;11380;50.822;15.790;2022-07-17T02:42:50;46.50;;;43.10;;
22425;SDS011;11380;50.822;15.790;2022-07-17T02:47:56;46.50;;;43.10;;
22425;SDS011;11380;50.822;15.790;2022-07-17T02:53:01;46.63;;;43.20;;
22425;SDS011;11380;50.822;15.790;2022-07-17T02:58:06;47.57;;;44.07;;
22425;SDS011;11380;50.822;15.790;2022-07-17T03:03:12;46.67;;;43.27;;
22425;SDS011;11380;50.822;15.790;2022-07-17T03:08:18;46.53;;;43.03;;
22425;SDS011;11380;50.822;15.790;2022-07-17T03:13:23;45.93;;;42.63;;
22425;SDS011;11380;50.822;15.790;2022-07-17T03:18:29;46.47;;;42.97;;
22425;SDS011;11380;50.822;15.790;2022-07-17T03:23:35;45.93;;;42.63;;
22425;SDS011;11380;50.822;15.790;2022-07-17T03:28:40;45.27;;;42.07;;
22425;SDS011;11380;50.822;15.790;2022-07-17T03:33:46;46.60;;;43.10;;
22425;SDS011;11380;50.822;15.790;2022-07-17T03:38:52;46.53;;;43.13;;
22425;SDS011;11380;50.822;15.790;2022-07-17T03:43:58;45.77;;;42.57;;
22425;SDS011;11380;50.822;15.790;2022-07-17T03:49:04;45.67;;;42.40;;
22425;SDS011;11380;50.822;15.790;2022-07-17T03:54:09;46.90;;;43.37;;
22425;SDS011;11380;50.822;15.790;2022-07-17T03:59:16;47.38;;;43.73;;
22425;SDS011;11380;50.822;15.790;2022-07-17T04:04:21;47.05;;;43.40;;
22425;SDS011;11380;50.822;15.790;2022-07-17T04:09:27;47.10;;;43.60;;
22425;SDS011;11380;50.822;15.790;2022-07-17T04:14:33;48.10;;;44.30;;
22425;SDS011;11380;50.822;15.790;2022-07-17T04:19:38;48.60;;;44.73;;
22425;SDS011;11380;50.822;15.790;2022-07-17T04:24:43;48.87;;;45.00;;
22425;SDS011;11380;50.822;15.790;2022-07-17T04:29:49;49.80;;;45.90;;
22425;SDS011;11380;50.822;15.790;2022-07-17T04:34:54;49.40;;;45.60;;
22425;SDS011;11380;50.822;15.790;2022-07-17T04:40:00;49.73;;;45.87;;
22425;SDS011;11380;50.822;15.790;2022-07-17T04:45:06;49.77;;;45.87;;
22425;SDS011;11380;50.822;15.790;2022-07-17T04:50:13;49.83;;;45.67;;
22425;SDS011;11380;50.822;15.790;2022-07-17T04:55:18;50.30;;;46.20;;
22425;SDS011;11380;50.822;15.790;2022-07-17T05:00:25;50.73;;;46.40;;
22425;SDS011;11380;50.822;15.790;2022-07-17T05:05:31;51.60;;;47.17;;
22425;SDS011;11380;50.822;15.790;2022-07-17T05:10:36;50.63;;;46.43;;
22425;SDS011;11380;50.822;15.790;2022-07-17T05:15:42;51.00;;;46.80;;
22425;SDS011;11380;50.822;15.790;2022-07-17T05:20:49;50.83;;;46.60;;
22425;SDS011;11380;50.822;15.790;2022-07-17T05:25:55;51.13;;;46.77;;
22425;SDS011;11380;50.822;15.790;2022-07-17T05:31:00;51.07;;;46.87;;
22425;SDS011;11380;50.822;15.790;2022-07-17T05:36:06;52.27;;;47.60;;
22425;SDS011;11380;50.822;15.790;2022-07-17T05:41:12;51.70;;;47.23;;
22425;SDS011;11380;50.822;15.790;2022-07-17T05:46:18;51.48;;;47.23;;
22425;SDS011;11380;50.822;15.790;2022-07-17T05:51:23;51.30;;;46.90;;
22425;SDS011;11380;50.822;15.790;2022-07-17T05:56:29;52.63;;;47.90;;
22425;SDS011;11380;50.822;15.790;2022-07-17T06:01:35;51.60;;;47.10;;
22425;SDS011;11380;50.822;15.790;2022-07-17T06:06:41;52.43;;;47.65;;
22425;SDS011;11380;50.822;15.790;2022-07-17T06:11:46;52.57;;;47.87;;
22425;SDS011;11380;50.822;15.790;2022-07-17T06:16:51;52.47;;;47.87;;
22425;SDS011;11380;50.822;15.790;2022-07-17T06:21:58;52.30;;;47.67;;
22425;SDS011;11380;50.822;15.790;2022-07-17T06:27:03;53.03;;;48.10;;
22425;SDS011;11380;50.822;15.790;2022-07-17T06:32:08;52.67;;;47.97;;
22425;SDS011;11380;50.822;15.790;2022-07-17T06:37:14;52.30;;;47.70;;
22425;SDS011;11380;50.822;15.790;2022-07-17T06:42:21;53.02;;;48.33;;
22425;SDS011;11380;50.822;15.790;2022-07-17T06:47:28;53.33;;;48.33;;
22425;SDS011;11380;50.822;15.790;2022-07-17T06:52:33;52.70;;;48.00;;
22425;SDS011;11380;50.822;15.790;2022-07-17T06:57:38;52.70;;;48.03;;
22425;SDS011;11380;50.822;15.790;2022-07-17T07:02:44;52.83;;;47.87;;
22425;SDS011;11380;50.822;15.790;2022-07-17T07:07:49;53.13;;;48.47;;
22425;SDS011;11380;50.822;15.790;2022-07-17T07:12:54;53.57;;;48.70;;
22425;SDS011;11380;50.822;15.790;2022-07-17T07:18:01;52.83;;;48.03;;
22425;SDS011;11380;50.822;15.790;2022-07-17T07:23:06;54.27;;;48.92;;
22425;SDS011;11380;50.822;15.790;2022-07-17T07:28:14;53.07;;;48.27;;
22425;SDS011;11380;50.822;15.790;2022-07-17T07:33:20;53.37;;;48.23;;
22425;SDS011;11380;50.822;15.790;2022-07-17T07:38:27;53.55;;;48.78;;
22425;SDS011;11380;50.822;15.790;2022-07-17T07:48:37;53.83;;;48.75;;
22425;SDS011;11380;50.822;15.790;2022-07-17T07:53:43;53.17;;;48.55;;
22425;SDS011;11380;50.822;15.790;2022-07-17T07:58:48;53.47;;;48.60;;
22425;SDS011;11380;50.822;15.790;2022-07-17T08:03:53;53.93;;;48.93;;
22425;SDS011;11380;50.822;15.790;2022-07-17T08:08:58;53.93;;;48.97;;
22425;SDS011;11380;50.822;15.790;2022-07-17T08:14:04;53.47;;;48.57;;
22425;SDS011;11380;50.822;15.790;2022-07-17T08:19:10;53.70;;;48.70;;
22425;SDS011;11380;50.822;15.790;2022-07-17T08:24:16;53.70;;;48.70;;
22425;SDS011;11380;50.822;15.790;2022-07-17T08:29:22;53.70;;;48.73;;
22425;SDS011;11380;50.822;15.790;2022-07-17T08:34:29;54.00;;;48.90;;
22425;SDS011;11380;50.822;15.790;2022-07-17T08:39:35;54.57;;;49.10;;
22425;SDS011;11380;50.822;15.790;2022-07-17T08:44:41;54.03;;;48.93;;
22425;SDS011;11380;50.822;15.790;2022-07-17T08:49:48;54.50;;;49.40;;
22425;SDS011;11380;50.822;15.790;2022-07-17T08:54:54;54.17;;;49.20;;
22425;SDS011;11380;50.822;15.790;2022-07-17T09:00:00;54.30;;;49.10;;
22425;SDS011;11380;50.822;15.790;2022-07-17T09:05:07;54.42;;;49.23;;
22425;SDS011;11380;50.822;15.790;2022-07-17T09:10:14;54.33;;;49.18;;
22425;SDS011;11380;50.822;15.790;2022-07-17T09:15:20;53.70;;;48.80;;
22425;SDS011;11380;50.822;15.790;2022-07-17T09:20:25;54.33;;;49.30;;
22425;SDS011;11380;50.822;15.790;2022-07-17T09:25:44;54.55;;;49.38;;
22425;SDS011;11380;50.822;15.790;2022-07-17T09:30:55;54.57;;;49.57;;
22425;SDS011;11380;50.822;15.790;2022-07-17T09:36:07;54.27;;;49.23;;
22425;SDS011;11380;50.822;15.790;2022-07-17T09:41:17;54.63;;;49.53;;
22425;SDS011;11380;50.822;15.790;2022-07-17T09:46:25;54.53;;;49.47;;
22425;SDS011;11380;50.822;15.790;2022-07-17T09:51:34;54.85;;;49.73;;
22425;SDS011;11380;50.822;15.790;2022-07-17T09:56:45;54.73;;;49.50;;
22425;SDS011;11380;50.822;15.790;2022-07-17T10:06:56;54.38;;;49.27;;
22425;SDS011;11380;50.822;15.790;2022-07-17T10:12:03;54.83;;;49.63;;
22425;SDS011;11380;50.822;15.790;2022-07-17T10:17:10;54.67;;;49.47;;
22425;SDS011;11380;50.822;15.790;2022-07-17T10:22:17;54.64;;;49.56;;
22425;SDS011;11380;50.822;15.790;2022-07-17T10:27:25;54.40;;;49.40;;
22425;SDS011;11380;50.822;15.790;2022-07-17T10:32:34;54.40;;;49.38;;
22425;SDS011;11380;50.822;15.790;2022-07-17T10:37:40;55.03;;;49.53;;
22425;SDS011;11380;50.822;15.790;2022-07-17T10:53:12;54.50;;;49.37;;
22425;SDS011;11380;50.822;15.790;2022-07-17T10:58:25;54.77;;;49.70;;
22425;SDS011;11380;50.822;15.790;2022-07-17T11:14:14;54.05;;;49.13;;
22425;SDS011;11380;50.822;15.790;2022-07-17T11:24:43;54.33;;;49.33;;
22425;SDS011;11380;50.822;15.790;2022-07-17T11:29:51;54.45;;;49.35;;
22425;SDS011;11380;50.822;15.790;2022-07-17T11:34:58;54.17;;;49.27;;
22425;SDS011;11380;50.822;15.790;2022-07-17T11:40:06;55.00;;;50.00;;
22425;SDS011;11380;50.822;15.790;2022-07-17T11:45:13;54.33;;;49.23;;
22425;SDS011;11380;50.822;15.790;2022-07-17T11:50:18;54.35;;;49.25;;
22425;SDS011;11380;50.822;15.790;2022-07-17T11:55:24;54.27;;;48.95;;
22425;SDS011;11380;50.822;15.790;2022-07-17T12:00:32;54.50;;;49.40;;
22425;SDS011;11380;50.822;15.790;2022-07-17T12:05:38;54.00;;;49.00;;
22425;SDS011;11380;50.822;15.790;2022-07-17T12:10:44;54.17;;;49.07;;
22425;SDS011;11380;50.822;15.790;2022-07-17T12:15:52;54.30;;;49.30;;
22425;SDS011;11380;50.822;15.790;2022-07-17T12:21:02;54.63;;;49.57;;
22425;SDS011;11380;50.822;15.790;2022-07-17T12:26:09;54.77;;;49.63;;
22425;SDS011;11380;50.822;15.790;2022-07-17T12:31:18;53.64;;;48.78;;
22425;SDS011;11380;50.822;15.790;2022-07-17T12:36:23;54.03;;;49.05;;
22425;SDS011;11380;50.822;15.790;2022-07-17T12:41:29;54.55;;;49.33;;
22425;SDS011;11380;50.822;15.790;2022-07-17T12:46:37;54.93;;;49.67;;
22425;SDS011;11380;50.822;15.790;2022-07-17T12:51:43;55.10;;;49.93;;
22425;SDS011;11380;50.822;15.790;2022-07-17T12:56:49;54.50;;;49.43;;
22425;SDS011;11380;50.822;15.790;2022-07-17T13:01:54;54.77;;;49.37;;
22425;SDS011;11380;50.822;15.790;2022-07-17T13:07:00;54.53;;;49.42;;
22425;SDS011;11380;50.822;15.790;2022-07-17T13:12:08;54.60;;;49.55;;
22425;SDS011;11380;50.822;15.790;2022-07-17T13:17:13;54.42;;;49.42;;
22425;SDS011;11380;50.822;15.790;2022-07-17T13:27:23;54.10;;;49.10;;
22425;SDS011;11380;50.822;15.790;2022-07-17T13:32:28;54.53;;;49.53;;
22425;SDS011;11380;50.822;15.790;2022-07-17T13:37:35;54.53;;;49.43;;
22425;SDS011;11380;50.822;15.790;2022-07-17T13:42:41;54.37;;;49.37;;
22425;SDS011;11380;50.822;15.790;2022-07-17T13:47:47;54.70;;;49.40;;
22425;SDS011;11380;50.822;15.790;2022-07-17T13:52:52;54.80;;;49.77;;
22425;SDS011;11380;50.822;15.790;2022-07-17T13:57:59;54.20;;;49.23;;
22425;SDS011;11380;50.822;15.790;2022-07-17T14:03:04;54.38;;;49.45;;
22425;SDS011;11380;50.822;15.790;2022-07-17T14:08:10;53.75;;;48.83;;
22425;SDS011;11380;50.822;15.790;2022-07-17T14:13:17;53.60;;;48.80;;
22425;SDS011;11380;50.822;15.790;2022-07-17T14:18:23;54.50;;;49.40;;
22425;SDS011;11380;50.822;15.790;2022-07-17T14:23:28;54.25;;;49.25;;
22425;SDS011;11380;50.822;15.790;2022-07-17T14:28:34;54.65;;;49.45;;
22425;SDS011;11380;50.822;15.790;2022-07-17T14:33:39;55.00;;;49.80;;
22425;SDS011;11380;50.822;15.790;2022-07-17T14:38:45;54.67;;;49.58;;
22425;SDS011;11380;50.822;15.790;2022-07-17T14:43:51;54.67;;;49.57;;
22425;SDS011;11380;50.822;15.790;2022-07-17T14:54:01;54.42;;;49.38;;
22425;SDS011;11380;50.822;15.790;2022-07-17T14:59:06;54.70;;;49.60;;
22425;SDS011;11380;50.822;15.790;2022-07-17T15:04:11;54.67;;;49.50;;
22425;SDS011;11380;50.822;15.790;2022-07-17T15:09:17;54.50;;;49.50;;
22425;SDS011;11380;50.822;15.790;2022-07-17T15:14:25;54.65;;;49.55;;
22425;SDS011;11380;50.822;15.790;2022-07-17T15:19:31;55.05;;;49.75;;
22425;SDS011;11380;50.822;15.790;2022-07-17T15:24:37;54.45;;;49.35;;
22425;SDS011;11380;50.822;15.790;2022-07-17T15:29:42;54.58;;;49.55;;
22425;SDS011;11380;50.822;15.790;2022-07-17T15:34:48;55.53;;;50.20;;
22425;SDS011;11380;50.822;15.790;2022-07-17T15:39:54;55.03;;;49.90;;
22425;SDS011;11380;50.822;15.790;2022-07-17T15:45:00;54.73;;;49.63;;
22425;SDS011;11380;50.822;15.790;2022-07-17T15:50:06;54.85;;;49.67;;
22425;SDS011;11380;50.822;15.790;2022-07-17T15:55:11;54.83;;;49.73;;
22425;SDS011;11380;50.822;15.790;2022-07-17T16:00:16;54.97;;;49.73;;
22425;SDS011;11380;50.822;15.790;2022-07-17T16:05:21;54.73;;;49.53;;
22425;SDS011;11380;50.822;15.790;2022-07-17T16:15:32;54.20;;;49.10;;
22425;SDS011;11380;50.822;15.790;2022-07-17T16:20:39;54.40;;;49.43;;
22425;SDS011;11380;50.822;15.790;2022-07-17T16:25:44;54.47;;;49.43;;
22425;SDS011;11380;50.822;15.790;2022-07-17T16:30:50;54.88;;;49.67;;
22425;SDS011;11380;50.822;15.790;2022-07-17T16:35:55;54.37;;;49.33;;
22425;SDS011;11380;50.822;15.790;2022-07-17T16:41:00;54.60;;;49.50;;
22425;SDS011;11380;50.822;15.790;2022-07-17T16:46:06;54.73;;;49.63;;
22425;SDS011;11380;50.822;15.790;2022-07-17T16:51:13;54.23;;;49.13;;
22425;SDS011;11380;50.822;15.790;2022-07-17T16:56:20;54.50;;;49.33;;
22425;SDS011;11380;50.822;15.790;2022-07-17T17:01:26;54.40;;;49.40;;
22425;SDS011;11380;50.822;15.790;2022-07-17T17:06:31;53.97;;;49.07;;
22425;SDS011;11380;50.822;15.790;2022-07-17T17:11:37;54.00;;;49.10;;
22425;SDS011;11380;50.822;15.790;2022-07-17T17:16:43;54.15;;;49.20;;
22425;SDS011;11380;50.822;15.790;2022-07-17T17:21:48;53.40;;;48.53;;
22425;SDS011;11380;50.822;15.790;2022-07-17T17:26:53;54.40;;;49.50;;
22425;SDS011;11380;50.822;15.790;2022-07-17T17:31:59;54.33;;;49.33;;
22425;SDS011;11380;50.822;15.790;2022-07-17T17:37:05;54.20;;;49.10;;
22425;SDS011;11380;50.822;15.790;2022-07-17T17:42:10;55.07;;;49.87;;
22425;SDS011;11380;50.822;15.790;2022-07-17T17:47:15;54.30;;;49.17;;
22425;SDS011;11380;50.822;15.790;2022-07-17T17:52:21;53.83;;;48.93;;
22425;SDS011;11380;50.822;15.790;2022-07-17T17:57:27;53.97;;;49.07;;
22425;SDS011;11380;50.822;15.790;2022-07-17T18:02:33;54.23;;;49.23;;
22425;SDS011;11380;50.822;15.790;2022-07-17T18:07:40;54.10;;;49.20;;
22425;SDS011;11380;50.822;15.790;2022-07-17T18:17:51;53.28;;;48.38;;
22425;SDS011;11380;50.822;15.790;2022-07-17T18:22:56;53.27;;;48.47;;
22425;SDS011;11380;50.822;15.790;2022-07-17T18:28:03;53.20;;;48.50;;
22425;SDS011;11380;50.822;15.790;2022-07-17T18:33:12;53.27;;;48.50;;
22425;SDS011;11380;50.822;15.790;2022-07-17T18:38:18;53.48;;;48.58;;
22425;SDS011;11380;50.822;15.790;2022-07-17T18:48:29;52.95;;;48.35;;
22425;SDS011;11380;50.822;15.790;2022-07-17T18:53:36;53.47;;;48.57;;
22425;SDS011;11380;50.822;15.790;2022-07-17T18:58:43;54.30;;;49.37;;
22425;SDS011;11380;50.822;15.790;2022-07-17T19:03:49;53.58;;;48.63;;
22425;SDS011;11380;50.822;15.790;2022-07-17T19:08:54;53.60;;;48.80;;
22425;SDS011;11380;50.822;15.790;2022-07-17T19:14:00;52.48;;;47.98;;
22425;SDS011;11380;50.822;15.790;2022-07-17T19:19:05;52.37;;;47.80;;
22425;SDS011;11380;50.822;15.790;2022-07-17T19:24:12;52.95;;;48.25;;
22425;SDS011;11380;50.822;15.790;2022-07-17T19:29:19;52.70;;;47.90;;
22425;SDS011;11380;50.822;15.790;2022-07-17T19:34:24;52.85;;;48.15;;
22425;SDS011;11380;50.822;15.790;2022-07-17T19:39:29;52.47;;;47.87;;
22425;SDS011;11380;50.822;15.790;2022-07-17T19:44:36;52.50;;;47.70;;
22425;SDS011;11380;50.822;15.790;2022-07-17T19:54:48;52.62;;;47.73;;
22425;SDS011;11380;50.822;15.790;2022-07-17T19:59:53;52.90;;;48.03;;
22425;SDS011;11380;50.822;15.790;2022-07-17T20:04:59;51.60;;;47.20;;
22425;SDS011;11380;50.822;15.790;2022-07-17T20:10:06;51.97;;;47.17;;
22425;SDS011;11380;50.822;15.790;2022-07-17T20:15:11;51.83;;;47.43;;
22425;SDS011;11380;50.822;15.790;2022-07-17T20:20:16;51.25;;;46.77;;
22425;SDS011;11380;50.822;15.790;2022-07-17T20:25:22;52.33;;;47.73;;
22425;SDS011;11380;50.822;15.790;2022-07-17T20:30:30;51.53;;;47.13;;
22425;SDS011;11380;50.822;15.790;2022-07-17T20:35:35;53.50;;;48.80;;
22425;SDS011;11380;50.822;15.790;2022-07-17T20:40:42;55.65;;;50.40;;
22425;SDS011;11380;50.822;15.790;2022-07-17T20:50:53;53.68;;;48.87;;
22425;SDS011;11380;50.822;15.790;2022-07-17T20:55:58;53.57;;;48.90;;
22425;SDS011;11380;50.822;15.790;2022-07-17T21:01:05;53.10;;;48.50;;
22425;SDS011;11380;50.822;15.790;2022-07-17T21:06:11;52.83;;;48.23;;
22425;SDS011;11380;50.822;15.790;2022-07-17T21:11:17;52.43;;;47.83;;
22425;SDS011;11380;50.822;15.790;2022-07-17T21:16:24;51.90;;;47.40;;
22425;SDS011;11380;50.822;15.790;2022-07-17T21:21:30;52.40;;;47.73;;
22425;SDS011;11380;50.822;15.790;2022-07-17T21:26:35;53.50;;;48.47;;
22425;SDS011;11380;50.822;15.790;2022-07-17T21:31:41;52.97;;;48.37;;
22425;SDS011;11380;50.822;15.790;2022-07-17T21:36:47;53.27;;;48.57;;
22425;SDS011;11380;50.822;15.790;2022-07-17T21:46:58;53.10;;;48.42;;
22425;SDS011;11380;50.822;15.790;2022-07-17T21:52:03;53.17;;;48.50;;
22425;SDS011;11380;50.822;15.790;2022-07-17T21:57:09;52.53;;;48.00;;
22425;SDS011;11380;50.822;15.790;2022-07-17T22:02:15;52.87;;;48.20;;
22425;SDS011;11380;50.822;15.790;2022-07-17T22:07:21;52.43;;;47.93;;
22425;SDS011;11380;50.822;15.790;2022-07-17T22:12:26;52.07;;;47.73;;
22425;SDS011;11380;50.822;15.790;2022-07-17T22:17:32;51.68;;;47.27;;
22425;SDS011;11380;50.822;15.790;2022-07-17T22:22:37;52.17;;;47.67;;
22425;SDS011;11380;50.822;15.790;2022-07-17T22:27:43;51.60;;;47.17;;
22425;SDS011;11380;50.822;15.790;2022-07-17T22:32:50;50.87;;;46.67;;
22425;SDS011;11380;50.822;15.790;2022-07-17T22:37:55;50.63;;;46.43;;
22425;SDS011;11380;50.822;15.790;2022-07-17T22:43:01;50.60;;;46.40;;
22425;SDS011;11380;50.822;15.790;2022-07-17T22:48:06;50.63;;;46.37;;
22425;SDS011;11380;50.822;15.790;2022-07-17T22:53:11;50.70;;;46.40;;
22425;SDS011;11380;50.822;15.790;2022-07-17T22:58:17;50.12;;;46.13;;
22425;SDS011;11380;50.822;15.790;2022-07-17T23:03:23;51.23;;;46.93;;
22425;SDS011;11380;50.822;15.790;2022-07-17T23:08:29;50.43;;;46.40;;
22425;SDS011;11380;50.822;15.790;2022-07-17T23:13:35;51.13;;;46.83;;
22425;SDS011;11380;50.822;15.790;2022-07-17T23:18:41;50.65;;;46.55;;
22425;SDS011;11380;50.822;15.790;2022-07-17T23:23:47;50.33;;;46.13;;
22425;SDS011;11380;50.822;15.790;2022-07-17T23:28:52;49.50;;;45.63;;
22425;SDS011;11380;50.822;15.790;2022-07-17T23:33:59;49.55;;;45.67;;
22425;SDS011;11380;50.822;15.790;2022-07-17T23:39:04;49.18;;;45.28;;
22425;SDS011;11380;50.822;15.790;2022-07-17T23:44:11;49.30;;;45.42;;
22425;SDS011;11380;50.822;15.790;2022-07-17T23:49:16;50.17;;;45.78;;
22425;SDS011;11380;50.822;15.790;2022-07-17T23:54:21;49.93;;;45.73;;
22425;SDS011;11380;50.822;15.790;2022-07-17T23:59:27;50.40;;;46.30;;
